Time;durP1;ratioP1;P1;durP2;ratioP2;P2;SDS_P1;SDS_P2;PMS_P1;PMS_P2;Temp;Humidity;BMP_temperature;BMP_pressure;BME280_temperature;BME280_humidity;BME280_pressure;Samples;Min_cycle;Max_cycle;Signal;HPM_P1;HPM_P2
2023/03/14 00:00:59;;;;;;;2.88;0.50;;;;;;;8.98;100.00;97188.72;4916014;28;20139;-74
2023/03/14 00:03:25;;;;;;;1.13;0.30;;;;;;;8.99;100.00;97203.03;4937967;28;20045;-75
2023/03/14 00:05:50;;;;;;;2.58;0.70;;;;;;;8.87;100.00;97173.34;4935088;28;20766;-75
2023/03/14 00:08:16;;;;;;;0.85;0.40;;;;;;;8.85;100.00;97150.34;4918495;29;20024;-75
2023/03/14 00:10:41;;;;;;;1.60;0.50;;;;;;;8.97;100.00;97165.50;4915077;28;20046;-75
2023/03/14 00:13:06;;;;;;;1.40;0.50;;;;;;;8.88;100.00;97145.34;4916819;29;20113;-75
2023/03/14 00:15:34;;;;;;;0.50;0.30;;;;;;;8.97;100.00;97159.28;4902407;28;20024;-75
2023/03/14 00:17:59;;;;;;;1.65;0.40;;;;;;;9.08;100.00;97171.13;4915034;28;20032;-74
2023/03/14 00:20:24;;;;;;;4.35;0.73;;;;;;;9.11;100.00;97165.25;4919832;28;20031;-75
2023/03/14 00:22:50;;;;;;;0.77;0.35;;;;;;;9.10;100.00;97136.66;4916186;29;20035;-75
2023/03/14 00:25:15;;;;;;;0.20;0.20;;;;;;;9.18;100.00;97153.31;4896434;29;20028;-75
2023/03/14 00:27:40;;;;;;;1.17;0.40;;;;;;;9.14;100.00;97165.63;4907127;28;20039;-74
2023/03/14 00:30:07;;;;;;;0.63;0.20;;;;;;;9.07;100.00;97164.09;4916056;29;20493;-75
2023/03/14 00:32:33;;;;;;;1.27;0.40;;;;;;;9.05;100.00;97187.78;4922479;28;20530;-75
2023/03/14 00:34:58;;;;;;;1.27;0.40;;;;;;;8.99;100.00;97184.97;4915197;28;20140;-75
2023/03/14 00:37:23;;;;;;;0.60;0.30;;;;;;;8.92;100.00;97184.25;4913851;28;20024;-75
2023/03/14 00:39:51;;;;;;;1.10;0.40;;;;;;;8.88;100.00;97176.84;4928917;28;20122;-75
2023/03/14 00:42:16;;;;;;;0.40;0.30;;;;;;;8.89;100.00;97186.59;4944132;28;20032;-74
2023/03/14 00:44:41;;;;;;;0.63;0.28;;;;;;;8.85;100.00;97183.53;4999568;28;20031;-74
2023/03/14 00:47:07;;;;;;;3.70;0.50;;;;;;;8.83;100.00;97190.22;4917693;28;20418;-74
2023/03/14 00:49:32;;;;;;;2.85;0.50;;;;;;;8.87;100.00;97194.09;4914486;28;20032;-74
2023/03/14 00:51:58;;;;;;;2.25;0.40;;;;;;;8.88;100.00;97201.97;4922903;29;20069;-75
2023/03/14 00:54:23;;;;;;;0.25;0.20;;;;;;;8.81;100.00;97195.03;4998125;28;20086;-74
2023/03/14 00:56:48;;;;;;;1.40;0.75;;;;;;;8.88;100.00;97215.47;4907017;28;20059;-75
2023/03/14 00:59:16;;;;;;;1.17;0.47;;;;;;;8.85;100.00;97204.28;4908582;28;20035;-75
2023/03/14 01:01:41;;;;;;;1.65;0.93;;;;;;;8.81;100.00;97213.91;4916900;29;20025;-75
2023/03/14 01:04:07;;;;;;;0.57;0.32;;;;;;;8.76;100.00;97211.91;4912466;29;20037;-75
2023/03/14 01:06:32;;;;;;;2.45;0.77;;;;;;;8.83;100.00;97228.81;4909394;29;20028;-75
2023/03/14 01:08:58;;;;;;;1.88;0.60;;;;;;;8.78;100.00;97216.00;4916018;29;20032;-74
2023/03/14 01:11:29;;;;;;;0.40;0.30;;;;;;;8.80;100.00;97225.72;4971801;28;20111;-75
2023/03/14 01:13:55;;;;;;;1.70;0.65;;;;;;;8.83;100.00;97226.13;4911538;29;20058;-74
2023/03/14 01:16:22;;;;;;;0.70;0.57;;;;;;;8.76;100.00;97218.09;4912473;28;20032;-75
2023/03/14 01:18:48;;;;;;;1.10;0.50;;;;;;;8.78;100.00;97217.88;4913442;29;20024;-75
2023/03/14 01:21:17;;;;;;;1.40;0.43;;;;;;;8.77;100.00;97221.63;4914596;28;20081;-75
2023/03/14 01:23:43;;;;;;;2.70;0.63;;;;;;;8.83;100.00;97214.47;4914595;29;20039;-75
2023/03/14 01:26:13;;;;;;;0.65;0.40;;;;;;;8.82;100.00;97213.66;4949000;23;20053;-77
2023/03/14 01:28:39;;;;;;;0.75;0.40;;;;;;;8.82;100.00;97200.19;4987742;28;20031;-75
2023/03/14 01:31:07;;;;;;;0.45;0.38;;;;;;;8.95;100.00;97199.16;4933399;28;20035;-76
2023/03/14 01:33:32;;;;;;;0.82;0.30;;;;;;;8.94;100.00;97179.44;4933823;29;20145;-76
2023/03/14 01:35:58;;;;;;;0.60;0.38;;;;;;;8.88;100.00;97161.50;4930823;29;20644;-77
2023/03/14 01:38:23;;;;;;;0.88;0.40;;;;;;;8.78;100.00;97137.81;4933491;29;20039;-76
2023/03/14 01:40:48;;;;;;;0.47;0.30;;;;;;;8.69;100.00;97103.31;4932330;29;20031;-76
2023/03/14 01:43:17;;;;;;;2.05;0.50;;;;;;;8.70;100.00;97086.94;4919900;29;20085;-76
2023/03/14 01:45:58;;;;;;;0.88;0.50;;;;;;;9.03;100.00;97127.84;4931400;29;20469;-77
2023/03/14 01:48:25;;;;;;;3.20;0.52;;;;;;;8.92;100.00;97097.13;4941740;28;20035;-76
2023/03/14 01:50:50;;;;;;;3.15;0.70;;;;;;;8.93;100.00;97087.97;4958967;28;20035;-78
2023/03/14 01:53:17;;;;;;;1.92;0.40;;;;;;;8.92;100.00;97070.16;4934578;28;20078;-78
2023/03/14 01:55:42;;;;;;;0.52;0.22;;;;;;;8.99;100.00;97063.59;4931915;29;20038;-77
2023/03/14 01:58:08;;;;;;;0.75;0.30;;;;;;;8.85;100.00;97046.00;4930465;29;20111;-79
2023/03/14 02:00:34;;;;;;;0.52;0.30;;;;;;;8.95;100.00;97059.72;4926069;29;20136;-80
2023/03/14 02:03:08;;;;;;;0.90;0.32;;;;;;;8.86;100.00;97050.34;4924946;29;20803;-76
2023/03/14 02:05:37;;;;;;;0.68;0.30;;;;;;;9.02;100.00;97062.31;4930330;28;20178;-77
2023/03/14 02:08:06;;;;;;;0.28;0.10;;;;;;;9.02;100.00;97051.50;4927939;29;20039;-77
2023/03/14 02:10:36;;;;;;;0.43;0.13;;;;;;;9.18;100.00;97036.47;4923764;28;20020;-77
2023/03/14 02:13:04;;;;;;;0.32;0.22;;;;;;;9.18;100.00;97036.47;4940119;28;20481;-77
2023/03/14 02:15:31;;;;;;;0.52;0.32;;;;;;;9.16;100.00;97034.00;4926411;29;20031;-77
2023/03/14 02:17:57;;;;;;;0.32;0.13;;;;;;;9.17;100.00;97037.53;4925465;29;20032;-79
2023/03/14 02:20:46;;;;;;;1.42;0.22;;;;;;;9.10;100.00;97013.38;4921832;28;20046;-77
2023/03/14 02:23:16;;;;;;;0.47;0.30;;;;;;;9.31;100.00;97041.59;4930753;29;20036;-80
2023/03/14 02:26:05;;;;;;;1.90;0.25;;;;;;;9.40;100.00;97010.47;4930264;29;20099;-76
2023/03/14 02:28:31;;;;;;;;;;;;;;;9.51;100.00;97014.22;4925633;29;20389;-77
2023/03/14 02:30:56;;;;;;;5.97;0.43;;;;;;;9.40;100.00;96996.16;4939532;29;20033;-76
2023/03/14 02:33:23;;;;;;;0.20;0.20;;;;;;;9.43;100.00;96982.16;4912608;28;20052;-76
2023/03/14 02:35:56;;;;;;;3.38;0.25;;;;;;;9.50;100.00;96996.34;4915739;29;20043;-76
2023/03/14 02:38:33;;;;;;;0.30;0.10;;;;;;;9.53;100.00;96973.47;4914200;29;20159;-76
2023/03/14 02:40:58;;;;;;;0.77;0.30;;;;;;;9.37;100.00;96951.56;4927271;28;20034;-76
2023/03/14 02:43:24;;;;;;;1.13;0.10;;;;;;;9.55;100.00;96976.75;4932705;29;20035;-77
2023/03/14 02:45:50;;;;;;;0.20;0.10;;;;;;;9.54;100.00;96964.31;4928104;29;20081;-78
2023/03/14 02:48:24;;;;;;;0.43;0.30;;;;;;;9.54;100.00;96959.72;4927711;28;20358;-77
2023/03/14 02:50:53;;;;;;;2.17;0.30;;;;;;;9.51;100.00;96970.16;4927147;28;20482;-78
2023/03/14 02:53:21;;;;;;;;;;;;;;;9.57;100.00;96975.44;4974776;28;20499;-77
2023/03/14 02:55:47;;;;;;;1.52;0.13;;;;;;;9.54;100.00;96975.13;4931661;29;19914;-81
2023/03/14 02:58:13;;;;;;;0.60;0.20;;;;;;;9.37;100.00;96923.78;4925150;28;20445;-77
2023/03/14 03:00:38;;;;;;;0.50;0.30;;;;;;;9.42;100.00;96954.38;4919626;29;20115;-77
2023/03/14 03:03:05;;;;;;;0.20;0.17;;;;;;;9.49;100.00;96964.22;4921093;28;20050;-77
2023/03/14 03:05:31;;;;;;;0.52;0.20;;;;;;;9.48;100.00;96941.78;4928342;28;20037;-77
2023/03/14 03:07:56;;;;;;;0.30;0.20;;;;;;;9.49;100.00;96956.94;4925797;29;20088;-77
2023/03/14 03:10:22;;;;;;;0.20;0.20;;;;;;;9.39;100.00;96944.06;4927169;28;20032;-77
2023/03/14 03:12:47;;;;;;;0.90;0.25;;;;;;;9.43;100.00;96928.19;4935192;28;20114;-76
2023/03/14 03:15:13;;;;;;;1.08;0.30;;;;;;;9.38;100.00;96918.13;4929113;29;20042;-77
2023/03/14 03:17:38;;;;;;;1.98;0.20;;;;;;;9.39;100.00;96945.94;4941323;28;20086;-79
2023/03/14 03:20:05;;;;;;;0.57;0.15;;;;;;;9.46;100.00;96953.88;4915996;28;20181;-77
2023/03/14 03:22:30;;;;;;;3.20;0.40;;;;;;;9.48;100.00;96947.19;4928946;29;20031;-79
2023/03/14 03:24:55;;;;;;;1.65;0.30;;;;;;;9.23;100.00;96907.06;4931332;29;20046;-77
2023/03/14 03:27:21;;;;;;;0.57;0.25;;;;;;;9.42;100.00;96929.25;4933447;28;20377;-77
2023/03/14 03:29:47;;;;;;;0.63;0.20;;;;;;;9.31;100.00;96916.66;4936277;28;20469;-78
2023/03/14 03:32:12;;;;;;;1.25;0.32;;;;;;;9.39;100.00;96930.56;4932636;28;20056;-79
2023/03/14 03:34:37;;;;;;;0.20;0.10;;;;;;;9.30;100.00;96910.44;4930146;28;20038;-77
2023/03/14 03:37:03;;;;;;;3.55;0.15;;;;;;;9.25;100.00;96923.84;4927213;29;20032;-77
2023/03/14 03:39:28;;;;;;;1.65;0.30;;;;;;;9.30;100.00;96940.13;4926990;28;20020;-77
2023/03/14 03:41:53;;;;;;;1.45;0.52;;;;;;;9.25;100.00;96937.31;4926450;28;20051;-77
2023/03/14 03:44:19;;;;;;;0.95;0.40;;;;;;;9.16;100.00;96915.28;4943144;28;20026;-78
2023/03/14 03:46:44;;;;;;;1.17;0.55;;;;;;;9.04;100.00;96889.41;4939075;28;20032;-77
2023/03/14 03:49:09;;;;;;;1.65;0.30;;;;;;;9.18;100.00;96896.16;4927288;29;20024;-77
2023/03/14 03:51:34;;;;;;;0.93;0.30;;;;;;;9.23;100.00;96900.84;4919151;28;20082;-80
2023/03/14 03:54:00;;;;;;;2.92;0.38;;;;;;;9.24;100.00;96914.09;4922120;29;20039;-77
2023/03/14 03:56:25;;;;;;;2.33;0.50;;;;;;;9.07;100.00;96891.66;4920798;28;20048;-77
2023/03/14 03:58:50;;;;;;;1.48;0.47;;;;;;;9.06;100.00;96890.81;4985696;28;20035;-77
2023/03/14 04:01:16;;;;;;;2.60;0.40;;;;;;;8.99;100.00;96884.75;4941480;28;20046;-77
2023/03/14 04:03:41;;;;;;;2.80;0.38;;;;;;;9.13;100.00;96910.38;4924882;29;20032;-79
2023/03/14 04:06:09;;;;;;;1.05;0.30;;;;;;;9.16;100.00;96912.59;4934104;29;20040;-77
2023/03/14 04:08:35;;;;;;;3.17;0.52;;;;;;;8.80;100.00;96854.44;4925519;28;20122;-77
2023/03/14 04:11:01;;;;;;;3.78;0.38;;;;;;;9.15;100.00;96912.84;4924891;28;20170;-77
2023/03/14 04:13:27;;;;;;;1.35;0.50;;;;;;;9.12;100.00;96908.75;4922055;29;20028;-77
2023/03/14 04:15:53;;;;;;;1.95;0.22;;;;;;;9.06;100.00;96898.09;4930351;28;20551;-78
2023/03/14 04:18:20;;;;;;;0.57;0.28;;;;;;;9.11;100.00;96912.50;4915120;29;20036;-77
2023/03/14 04:20:45;;;;;;;1.13;0.40;;;;;;;8.95;100.00;96894.38;4926466;29;20028;-77
2023/03/14 04:23:11;;;;;;;1.70;0.30;;;;;;;9.06;100.00;96901.59;4951172;28;20366;-77
2023/03/14 04:25:36;;;;;;;2.13;0.38;;;;;;;8.86;100.00;96875.06;4934096;29;20325;-77
2023/03/14 04:28:03;;;;;;;2.80;0.43;;;;;;;9.02;100.00;96905.84;4924019;29;20028;-80
2023/03/14 04:30:29;;;;;;;2.33;0.30;;;;;;;9.03;100.00;96888.59;4923607;29;20393;-77
2023/03/14 04:32:54;;;;;;;1.90;0.40;;;;;;;9.05;100.00;96889.19;4934778;29;20040;-77
2023/03/14 04:35:20;;;;;;;1.33;0.38;;;;;;;9.16;100.00;96892.88;4984808;28;20038;-77
2023/03/14 04:37:48;;;;;;;3.28;0.77;;;;;;;9.15;100.00;96894.78;4939176;28;20036;-77
2023/03/14 04:40:15;;;;;;;2.38;0.40;;;;;;;9.15;100.00;96902.88;4919540;29;20112;-77
2023/03/14 04:42:40;;;;;;;2.47;0.65;;;;;;;9.04;100.00;96875.91;4946577;29;20465;-79
2023/03/14 04:45:07;;;;;;;2.25;0.30;;;;;;;8.84;100.00;96850.22;4927240;29;20078;-87
2023/03/14 04:47:33;;;;;;;2.03;0.40;;;;;;;9.11;100.00;96898.19;4930421;29;20049;-78
2023/03/14 04:49:58;;;;;;;1.70;0.40;;;;;;;8.95;100.00;96875.50;4935596;29;20082;-81
2023/03/14 04:52:23;;;;;;;1.20;0.20;;;;;;;8.90;100.00;96870.81;4930987;28;20063;-77
2023/03/14 04:54:49;;;;;;;0.70;0.28;;;;;;;8.93;100.00;96886.53;4935898;29;20027;-79
2023/03/14 04:57:17;;;;;;;4.13;0.38;;;;;;;8.90;100.00;96867.31;4945934;28;20024;-84
2023/03/14 04:59:43;;;;;;;3.28;0.50;;;;;;;8.70;100.00;96843.47;4945641;29;20030;-78
2023/03/14 05:02:08;;;;;;;1.75;0.47;;;;;;;8.79;100.00;96855.50;4977806;28;20043;-81
2023/03/14 05:04:34;;;;;;;3.95;0.68;;;;;;;8.84;100.00;96846.72;4921293;29;20054;-81
2023/03/14 05:07:00;;;;;;;1.13;0.22;;;;;;;8.84;100.00;96852.91;4944276;28;20111;-81
2023/03/14 05:09:25;;;;;;;6.30;0.40;;;;;;;8.80;100.00;96843.66;4937949;28;20039;-78
2023/03/14 05:11:50;;;;;;;6.88;1.45;;;;;;;8.68;100.00;96827.53;4930747;28;20028;-77
2023/03/14 05:14:16;;;;;;;1.85;0.50;;;;;;;8.75;100.00;96857.03;4975274;28;20027;-77
2023/03/14 05:16:41;;;;;;;3.63;0.50;;;;;;;8.71;100.00;96853.19;4931146;28;20777;-79
2023/03/14 05:19:06;;;;;;;3.22;0.57;;;;;;;8.70;100.00;96865.03;4928297;28;20038;-77
2023/03/14 05:21:31;;;;;;;2.92;0.43;;;;;;;8.61;100.00;96836.81;4932869;29;20155;-76
2023/03/14 05:23:57;;;;;;;2.83;0.73;;;;;;;8.64;100.00;96853.31;4931389;28;20030;-76
2023/03/14 05:26:23;;;;;;;4.70;0.70;;;;;;;8.59;100.00;96833.53;4928062;28;20024;-77
2023/03/14 05:28:48;;;;;;;4.03;0.65;;;;;;;8.71;100.00;96834.31;4932730;29;20093;-76
2023/03/14 05:31:13;;;;;;;3.33;0.90;;;;;;;8.63;100.00;96818.53;4935857;28;20474;-75
2023/03/14 05:33:39;;;;;;;9.90;2.95;;;;;;;8.65;100.00;96825.31;4941736;28;20586;-77
2023/03/14 05:36:05;;;;;;;8.32;3.10;;;;;;;8.58;100.00;96813.03;4925304;28;20126;-79
2023/03/14 05:38:32;;;;;;;1.30;0.70;;;;;;;8.73;100.00;96834.91;4927218;28;20115;-77
2023/03/14 05:40:57;;;;;;;2.22;0.80;;;;;;;8.57;100.00;96804.13;4925737;28;20036;-77
2023/03/14 05:43:22;;;;;;;3.67;0.73;;;;;;;8.73;100.00;96807.94;4924495;28;20038;-78
2023/03/14 05:45:48;;;;;;;2.47;0.47;;;;;;;8.90;100.00;96819.56;4927088;29;20034;-73
2023/03/14 05:48:13;;;;;;;3.05;0.70;;;;;;;8.94;100.00;96815.34;4929473;28;20028;-80
2023/03/14 05:50:38;;;;;;;3.40;0.73;;;;;;;8.95;100.00;96816.97;4951911;28;20027;-78
2023/03/14 05:53:04;;;;;;;2.38;0.50;;;;;;;9.04;100.00;96822.81;4938048;29;20065;-77
2023/03/14 05:55:29;;;;;;;2.63;0.70;;;;;;;8.99;100.00;96818.16;4943198;28;20607;-76
2023/03/14 05:57:54;;;;;;;2.88;0.75;;;;;;;8.97;100.00;96801.38;4919978;28;20039;-81
2023/03/14 06:00:20;;;;;;;7.20;1.15;;;;;;;9.24;100.00;96833.13;5003345;28;20043;-88
2023/03/14 06:02:46;;;;;;;2.17;0.50;;;;;;;9.15;100.00;96799.53;4935440;29;20032;-77
2023/03/14 06:05:11;;;;;;;5.97;0.75;;;;;;;9.31;100.00;96816.81;4937190;28;20109;-77
2023/03/14 06:07:37;;;;;;;3.85;0.93;;;;;;;9.13;100.00;96796.25;4993973;28;20496;-79
2023/03/14 06:10:02;;;;;;;4.80;0.85;;;;;;;9.05;100.00;96767.00;4943574;28;20106;-78
2023/03/14 06:12:28;;;;;;;4.55;1.00;;;;;;;9.23;100.00;96804.53;4929115;28;20493;-77
2023/03/14 06:14:53;;;;;;;2.22;0.65;;;;;;;9.30;100.00;96809.75;4924446;28;20055;-78
2023/03/14 06:17:19;;;;;;;5.60;0.80;;;;;;;9.21;100.00;96791.28;4921352;28;20059;-78
2023/03/14 06:19:44;;;;;;;5.70;0.90;;;;;;;8.88;100.00;96759.69;4926765;28;20055;-79
2023/03/14 06:22:09;;;;;;;4.10;0.50;;;;;;;9.19;100.00;96789.88;4937562;29;20100;-81
2023/03/14 06:24:34;;;;;;;3.13;0.50;;;;;;;9.26;100.00;96804.03;4929572;29;20507;-77
2023/03/14 06:27:02;;;;;;;3.83;0.50;;;;;;;9.30;100.00;96817.84;5001773;28;20051;-78
2023/03/14 06:29:27;;;;;;;5.47;0.60;;;;;;;9.34;100.00;96819.00;4932279;28;20075;-81
2023/03/14 06:31:52;;;;;;;3.95;0.70;;;;;;;8.98;100.00;96751.75;4934978;29;20028;-79
2023/03/14 06:34:18;;;;;;;1.67;0.43;;;;;;;9.40;100.00;96815.31;4939107;29;20024;-80
2023/03/14 06:36:43;;;;;;;4.13;0.88;;;;;;;9.75;100.00;96815.09;4937241;29;20055;-79
2023/03/14 06:39:08;;;;;;;4.57;0.70;;;;;;;10.27;100.00;96809.38;4935159;28;20486;-81
2023/03/14 06:41:34;;;;;;;5.25;0.82;;;;;;;11.28;100.00;96788.28;4936941;28;20031;-78
2023/03/14 06:43:59;;;;;;;3.45;0.50;;;;;;;12.37;100.00;96786.06;4944780;28;20489;-79
2023/03/14 06:46:24;;;;;;;4.90;0.98;;;;;;;11.73;100.00;96795.13;4931184;28;20023;-79
2023/03/14 06:48:50;;;;;;;3.28;0.68;;;;;;;12.49;100.00;96778.50;4930649;28;20074;-78
2023/03/14 06:51:15;;;;;;;1.73;0.47;;;;;;;11.51;100.00;96760.03;4939476;28;20031;-79
2023/03/14 06:53:40;;;;;;;5.40;0.40;;;;;;;10.62;100.00;96775.72;4944052;29;20027;-79
2023/03/14 06:56:06;;;;;;;3.58;0.43;;;;;;;10.47;100.00;96784.47;4930591;28;20039;-78
2023/03/14 06:58:32;;;;;;;4.63;1.10;;;;;;;10.83;100.00;96784.06;4929912;28;20042;-72
2023/03/14 07:00:58;;;;;;;1.02;0.30;;;;;;;13.18;100.00;96773.78;4930135;28;20032;-74
2023/03/14 07:03:24;;;;;;;1.70;0.73;;;;;;;15.61;100.00;96752.53;4922635;28;20073;-74
2023/03/14 07:05:49;;;;;;;2.25;1.30;;;;;;;17.58;90.42;96767.88;4931582;29;20122;-72
2023/03/14 07:08:15;;;;;;;7.10;0.50;;;;;;;18.33;74.13;96772.34;4921680;28;20024;-73
2023/03/14 07:10:40;;;;;;;4.47;0.38;;;;;;;18.52;72.49;96786.75;4923556;28;20046;-73
2023/03/14 07:13:05;;;;;;;1.63;0.57;;;;;;;20.17;66.39;96770.91;4923787;28;20024;-73
2023/03/14 07:15:31;;;;;;;4.30;0.50;;;;;;;21.24;59.93;96773.38;4922586;28;20073;-72
2023/03/14 07:17:56;;;;;;;1.45;0.38;;;;;;;19.90;61.07;96786.44;4926551;29;20126;-82
2023/03/14 07:20:21;;;;;;;1.17;0.40;;;;;;;16.55;84.24;96799.34;4949901;28;20028;-82
2023/03/14 07:22:49;;;;;;;2.42;0.57;;;;;;;13.95;100.00;96788.22;4925296;28;20433;-74
2023/03/14 07:25:14;;;;;;;4.60;0.60;;;;;;;12.86;100.00;96789.22;4913579;29;20024;-73
2023/03/14 07:27:40;;;;;;;4.25;0.60;;;;;;;12.12;100.00;96792.16;4920338;29;20078;-74
2023/03/14 07:30:06;;;;;;;3.10;0.73;;;;;;;11.44;100.00;96784.63;4924669;28;20055;-79
2023/03/14 07:32:31;;;;;;;3.35;0.50;;;;;;;11.18;100.00;96800.63;4978062;28;20024;-79
2023/03/14 07:34:56;;;;;;;2.13;0.47;;;;;;;10.98;100.00;96770.69;4921640;29;20123;-82
2023/03/14 07:37:21;;;;;;;6.38;0.60;;;;;;;11.08;100.00;96803.28;4936382;28;20030;-80
2023/03/14 07:39:47;;;;;;;3.05;0.60;;;;;;;11.10;100.00;96768.63;4931277;28;20024;-71
2023/03/14 07:42:12;;;;;;;1.90;0.35;;;;;;;11.24;100.00;96782.56;4924677;28;20637;-72
2023/03/14 07:44:37;;;;;;;2.33;0.43;;;;;;;11.43;100.00;96793.81;4922828;29;20028;-72
2023/03/14 07:47:03;;;;;;;3.53;0.20;;;;;;;11.55;100.00;96775.53;4923942;28;20036;-69
2023/03/14 07:49:28;;;;;;;0.70;0.20;;;;;;;11.79;100.00;96794.13;4923203;28;20498;-74
2023/03/14 07:51:55;;;;;;;2.42;0.25;;;;;;;11.99;100.00;96799.66;4925165;29;20386;-71
2023/03/14 07:54:20;;;;;;;2.50;0.40;;;;;;;12.30;100.00;96770.03;4922351;28;20115;-71
2023/03/14 07:56:45;;;;;;;1.65;0.30;;;;;;;12.17;100.00;96767.78;4927518;29;20055;-74
2023/03/14 07:59:12;;;;;;;2.30;0.25;;;;;;;12.30;100.00;96789.00;4931488;29;20055;-72
2023/03/14 08:01:37;;;;;;;2.22;0.47;;;;;;;12.70;100.00;96774.78;4916119;29;20027;-72
2023/03/14 08:04:03;;;;;;;1.98;0.80;;;;;;;13.67;100.00;96784.16;4922065;29;20032;-72
2023/03/14 08:06:28;;;;;;;1.08;0.20;;;;;;;14.64;100.00;96765.72;4916415;29;20538;-71
2023/03/14 08:08:53;;;;;;;3.15;0.52;;;;;;;16.00;100.00;96771.56;4934408;29;20497;-72
2023/03/14 08:11:18;;;;;;;2.05;0.30;;;;;;;16.39;100.00;96779.59;4930864;29;20051;-72
2023/03/14 08:13:49;;;;;;;1.10;0.30;;;;;;;17.71;82.13;96767.94;4933394;28;20114;-71
2023/03/14 08:16:16;;;;;;;0.47;0.22;;;;;;;19.90;69.09;96759.00;4927882;29;20034;-72
2023/03/14 08:18:41;;;;;;;0.68;0.20;;;;;;;21.15;60.08;96756.06;4926226;29;20027;-72
2023/03/14 08:21:06;;;;;;;1.17;0.60;;;;;;;21.67;57.07;96741.53;4920999;29;20024;-71
2023/03/14 08:23:32;;;;;;;0.82;0.20;;;;;;;20.44;61.18;96760.88;4916421;29;20493;-72
2023/03/14 08:25:57;;;;;;;1.90;0.40;;;;;;;17.96;67.06;96763.97;4922877;28;20034;-72
2023/03/14 08:28:22;;;;;;;0.50;0.30;;;;;;;15.96;81.42;96776.78;4931856;29;20161;-71
2023/03/14 08:30:48;;;;;;;0.30;0.20;;;;;;;14.89;100.00;96788.47;4932788;29;20023;-72
2023/03/14 08:33:13;;;;;;;1.95;0.38;;;;;;;14.08;100.00;96795.00;4917454;29;20028;-72
2023/03/14 08:35:39;;;;;;;1.23;0.20;;;;;;;13.82;100.00;96790.41;4941091;28;20497;-72
2023/03/14 08:38:04;;;;;;;1.63;0.20;;;;;;;13.74;100.00;96769.22;4931475;28;20039;-71
2023/03/14 08:40:29;;;;;;;0.68;0.10;;;;;;;14.12;100.00;96769.69;4927370;28;20036;-78
2023/03/14 08:42:55;;;;;;;0.32;0.10;;;;;;;13.70;100.00;96770.88;4929555;28;20490;-84
2023/03/14 08:45:21;;;;;;;0.15;0.00;;;;;;;13.62;100.00;96776.81;4925876;29;20032;-75
2023/03/14 08:47:46;;;;;;;1.10;0.43;;;;;;;13.44;100.00;96780.94;4929206;28;20028;-70
2023/03/14 08:50:12;;;;;;;3.13;0.20;;;;;;;13.32;100.00;96802.09;4925644;29;20110;-80
2023/03/14 08:52:40;;;;;;;0.45;0.10;;;;;;;13.30;100.00;96753.47;4923801;29;20038;-75
2023/03/14 08:55:32;;;;;;;0.32;0.08;;;;;;;13.41;100.00;96796.94;4941588;28;20425;-81
2023/03/14 08:57:58;;;;;;;0.43;0.20;;;;;;;13.40;100.00;96793.41;4949684;28;20123;-83
2023/03/14 09:03:51;;;;;;;0.55;0.10;;;;;;;13.26;100.00;96792.28;4947090;29;20174;-78
2023/03/14 09:06:19;;;;;;;0.10;0.10;;;;;;;13.60;100.00;96819.78;4987267;28;20043;-79
2023/03/14 09:08:45;;;;;;;1.38;0.00;;;;;;;13.63;100.00;96819.22;4929252;28;20035;-84
2023/03/14 09:11:11;;;;;;;0.38;0.10;;;;;;;13.61;100.00;96821.41;4935024;29;20028;-72
2023/03/14 09:13:37;;;;;;;0.73;0.10;;;;;;;13.04;100.00;96809.59;4922151;29;20081;-78
2023/03/14 09:16:03;;;;;;;0.95;0.03;;;;;;;12.87;100.00;96830.75;4920424;29;20441;-79
2023/03/14 09:18:28;;;;;;;0.00;0.00;;;;;;;12.65;100.00;96812.78;4921905;29;20024;-75
2023/03/14 09:20:55;;;;;;;0.43;0.10;;;;;;;12.50;100.00;96835.22;4924446;29;20044;-77
2023/03/14 09:23:21;;;;;;;0.20;0.10;;;;;;;12.27;100.00;96843.75;4928623;28;20024;-78
2023/03/14 09:25:46;;;;;;;0.50;0.03;;;;;;;12.18;100.00;96840.75;4927554;28;20465;-76
2023/03/14 09:28:12;;;;;;;1.95;0.10;;;;;;;11.95;100.00;96860.09;4941371;29;20035;-78
2023/03/14 09:30:38;;;;;;;0.10;0.03;;;;;;;11.63;100.00;96840.03;4931191;28;20020;-77
2023/03/14 09:33:03;;;;;;;0.00;0.00;;;;;;;11.55;100.00;96837.81;4923684;29;20036;-78
2023/03/14 09:35:28;;;;;;;0.15;0.00;;;;;;;11.74;100.00;96864.50;4979416;28;20081;-77
2023/03/14 09:37:54;;;;;;;3.20;0.35;;;;;;;12.21;100.00;96850.25;4965172;28;20026;-77
2023/03/14 09:40:22;;;;;;;2.55;0.15;;;;;;;12.62;100.00;96869.44;4938084;28;20020;-80
2023/03/14 09:42:51;;;;;;;0.45;0.10;;;;;;;13.15;100.00;96862.03;4927316;29;20032;-76
2023/03/14 09:45:27;;;;;;;0.10;0.10;;;;;;;13.13;100.00;96850.66;4932492;29;20040;-78
2023/03/14 09:47:53;;;;;;;0.45;0.10;;;;;;;13.97;100.00;96846.66;4935027;29;20027;-74
2023/03/14 09:50:19;;;;;;;0.68;0.17;;;;;;;14.29;100.00;96861.84;4930001;29;20024;-76
2023/03/14 09:52:49;;;;;;;0.73;0.10;;;;;;;13.81;100.00;96873.03;4925459;28;20043;-75
2023/03/14 09:55:19;;;;;;;0.63;0.30;;;;;;;14.09;100.00;96862.69;4928941;29;20054;-76
2023/03/14 09:57:45;;;;;;;1.55;0.10;;;;;;;13.77;100.00;96866.50;4932952;29;20030;-71
2023/03/14 10:00:25;;;;;;;2.05;0.60;;;;;;;13.78;100.00;96873.59;4928728;29;20028;-73
2023/03/14 10:02:56;;;;;;;1.85;0.40;;;;;;;13.22;100.00;96859.88;4931085;29;20067;-73
2023/03/14 10:05:23;;;;;;;2.25;0.40;;;;;;;13.25;100.00;96859.34;4925259;28;20023;-73
2023/03/14 10:07:49;;;;;;;0.75;0.35;;;;;;;13.56;100.00;96862.16;4918854;28;20056;-74
2023/03/14 10:10:24;;;;;;;1.27;0.20;;;;;;;13.63;100.00;96843.69;4924811;28;20032;-74
2023/03/14 10:12:58;;;;;;;0.63;0.20;;;;;;;14.40;100.00;96840.88;4932403;29;20736;-74
2023/03/14 10:15:27;;;;;;;0.25;0.10;;;;;;;15.02;100.00;96857.84;4921583;29;20036;-73
2023/03/14 10:17:52;;;;;;;0.32;0.08;;;;;;;17.74;95.94;96843.13;4918841;29;20020;-74
2023/03/14 10:20:34;;;;;;;0.38;0.13;;;;;;;20.28;75.92;96851.94;4931661;29;20514;-71
2023/03/14 10:23:06;;;;;;;1.08;0.10;;;;;;;21.43;63.68;96832.78;4932310;29;20032;-71
2023/03/14 10:25:35;;;;;;;0.20;0.05;;;;;;;20.83;60.75;96827.94;4931353;28;20123;-71
2023/03/14 10:28:02;;;;;;;0.93;0.00;;;;;;;18.54;67.06;96828.31;4932489;28;20362;-74
2023/03/14 10:30:44;;;;;;;0.10;0.10;;;;;;;18.12;76.72;96848.53;4928884;29;20490;-71
2023/03/14 10:33:25;;;;;;;0.08;0.08;;;;;;;16.81;87.18;96848.22;4924059;29;20085;-72
2023/03/14 10:36:02;;;;;;;0.47;0.08;;;;;;;16.50;90.01;96836.81;4931518;29;20130;-72
2023/03/14 10:38:33;;;;;;;1.13;0.10;;;;;;;15.88;99.45;96833.88;4931795;28;20432;-72
2023/03/14 10:40:59;;;;;;;0.38;0.20;;;;;;;15.45;100.00;96844.50;4928663;28;20062;-72
2023/03/14 10:43:33;;;;;;;0.80;0.10;;;;;;;14.80;100.00;96825.53;4918918;29;20031;-72
2023/03/14 10:46:02;;;;;;;0.30;0.00;;;;;;;14.50;100.00;96846.28;4925149;29;20473;-71
2023/03/14 10:48:40;;;;;;;0.82;0.35;;;;;;;14.39;100.00;96840.06;4923467;29;20059;-73
2023/03/14 10:51:10;;;;;;;0.45;0.20;;;;;;;14.21;100.00;96827.88;4920958;29;20419;-76
2023/03/14 10:53:42;;;;;;;;;;;;;;;14.00;100.00;96848.84;4918876;29;20031;-75
2023/03/14 10:56:15;;;;;;;0.17;0.00;;;;;;;14.02;100.00;96846.66;4947049;29;19911;-75
2023/03/14 10:58:43;;;;;;;0.10;0.00;;;;;;;14.35;100.00;96838.97;4931995;29;20102;-75
2023/03/14 11:01:14;;;;;;;1.23;0.00;;;;;;;13.91;100.00;96849.66;4926511;28;20038;-75
2023/03/14 11:03:44;;;;;;;0.40;0.30;;;;;;;13.35;100.00;96850.44;4923111;28;20474;-75
2023/03/14 11:06:18;;;;;;;1.70;0.10;;;;;;;13.30;100.00;96853.16;4921096;29;20086;-76
2023/03/14 11:08:57;;;;;;;0.13;0.10;;;;;;;13.54;100.00;96872.47;4911824;29;20409;-73
2023/03/14 11:11:25;;;;;;;0.35;0.10;;;;;;;13.07;100.00;96859.84;4913945;29;20039;-75
2023/03/14 11:14:15;;;;;;;0.43;0.00;;;;;;;12.75;100.00;96877.09;4916412;29;20489;-75
2023/03/14 11:17:00;;;;;;;0.65;0.10;;;;;;;12.50;100.00;96878.63;4929275;28;20077;-73
2023/03/14 11:19:50;;;;;;;1.50;0.00;;;;;;;12.14;100.00;96890.31;4924531;29;20402;-73
2023/03/14 11:22:34;;;;;;;0.00;0.00;;;;;;;12.09;100.00;96884.84;4930108;29;20505;-73
2023/03/14 11:25:26;;;;;;;0.28;0.03;;;;;;;12.14;100.00;96893.03;4932011;29;20028;-75
2023/03/14 11:27:57;;;;;;;3.60;0.45;;;;;;;12.12;100.00;96903.31;4931663;29;20651;-75
2023/03/14 11:30:34;;;;;;;0.60;0.20;;;;;;;12.22;100.00;96892.53;4928788;29;20081;-75
2023/03/14 11:33:46;;;;;;;0.55;0.00;;;;;;;11.86;100.00;96894.97;4912833;29;20103;-75
2023/03/14 11:36:19;;;;;;;0.88;0.05;;;;;;;11.97;100.00;96885.03;4917973;28;20452;-73